• Join FlightAware (Why Join?)
  • Login
  • US Flag 
07:19AM EDT


 

Airport Tracker/Info


-or-


 

Live Flight TrackerFlight Track Log ✈ SWA1798 ✈ 27-Apr-2013 ✈ KSFO - KSNA

Flight Track Log - Related Links

Times and Time Zones

All times are in EDT time to prevent confusion due to time zone crossing. See the SWA1798 flight status page for this flight to view local times or setup timezone preferences in your user account.

Time Position Orientation Groundspeed Altitude Reporting Facility
EDT Latitude Longitude Course Direction KTS MPH feet Rate Location/Type
04:19PM 37.6667 -122.3667 191° South 197 227 2,700  Level Northern Cal TRACON
04:22PM 37.5767 -122.4475 215° Southwest 264 304 10,700 3,420 Climbing Oakland Center
04:23PM 37.4836 -122.4658 189° South 335 386 14,200 3,300 Climbing Oakland Center
04:24PM 37.3836 -122.4864 189° South 362 417 17,500 2,880 Climbing Oakland Center
04:25PM 37.1411 -122.5439 191° South  Level FlightAware Approximate
04:25PM 37.2683 -122.5092 189° South 414 476 20,200  Level Oakland Center
04:26PM 37.1228 -122.5383 189° South 440 506 23,600 3,000 Climbing Oakland Center
04:27PM 36.9942 -122.5664 190° South 465 535 26,400 3,000 Climbing Oakland Center
04:28PM 36.8658 -122.5497 174° South 468 539 29,700 3,060 Climbing Oakland Center
04:29PM 36.7447 -122.5175 168° South 447 514 32,700 2,580 Climbing Oakland Center
04:30PM 36.6253 -122.4853 168° South 441 507 35,000 2,040 Climbing Oakland Center
04:31PM 36.5044 -122.4542 168° South 443 510 36,900 1,800 Climbing Oakland Center
04:32PM 36.3936 -122.3933 156° South 446 513 38,700 1,560 Climbing Oakland Center
04:33PM 36.3156 -122.2797 130° Southeast 440 506 40,100 1,080 Climbing Oakland Center
04:34PM 36.2367 -122.1647 130° Southeast 440 506 41,000 420 Climbing Oakland Center
04:35PM 36.1542 -122.0453 131° Southeast 454 522 41,000  Level Oakland Center
04:36PM 36.0536 -121.8997 130° Southeast 465 535 41,000  Level Oakland Center
04:37PM 35.9828 -121.7978 131° Southeast 464 534 41,000  Level Oakland Center
04:38PM 35.8817 -121.6531 131° Southeast 465 535 41,000  Level Oakland Center
04:39PM 35.7964 -121.5317 131° Southeast 468 539 41,000  Level Oakland Center
04:40PM 35.7131 -121.4117 131° Southeast 465 535 41,000  Level Oakland Center
04:41PM 35.6281 -121.2919 131° Southeast 464 534 41,000  Level Oakland Center
04:42PM 35.5450 -121.1719 130° Southeast 465 535 41,000  Level Oakland Center
04:43PM 35.4506 -121.0661 138° Southeast 464 534 41,000  Level Oakland Center
04:44PM 35.3422 -120.9814 147° Southeast 465 535 41,000  Level Oakland Center
04:45PM 35.2353 -120.8958 147° Southeast 463 533 41,000  Level Oakland Center
04:46PM 35.1067 -120.7964 148° Southeast 461 531 41,000 -300 Level Oakland Center
04:47PM 34.9994 -120.7131 148° Southeast 460 529 40,500 -720 Descending Oakland Center
04:48PM 34.8986 -120.6350 148° Southeast 459 528 39,600 -960 Descending Oakland Center
04:49PM 34.7919 -120.5519 147° Southeast 454 522 38,600 -1,080 Descending Oakland Center
04:50PM 34.6817 -120.4650 147° Southeast 453 521 37,500 -1,080 Descending Oakland Center
04:51PM 34.5800 -120.3906 149° Southeast 441 507 36,400 -1,020 Descending Oakland Center
04:52PM 34.4800 -120.3125 147° Southeast 429 494 35,500 -960 Descending Oakland Center
04:53PM 34.4408 -120.2833 148° Southeast 427 491 35,100 -1,080 Descending Los Angeles Center
04:54PM 34.3211 -120.1936 148° Southeast 429 494 34,000 -1,020 Descending Los Angeles Center
04:55PM 34.2336 -120.1011 139° Southeast 429 494 33,000 -1,020 Descending Los Angeles Center
04:56PM 34.1736 -119.9822 121° Southeast 416 479 31,900 -1,500 Descending Los Angeles Center
04:57PM 34.1150 -119.8669 122° Southeast 408 470 29,900 -1,380 Descending Los Angeles Center
04:58PM 34.0561 -119.7461 120° Southeast 421 484 29,100 -960 Descending Los Angeles Center
04:59PM 33.9772 -119.5906 121° Southeast 452 520 28,000 -1,500 Descending Los Angeles Center
05:00PM 33.9108 -119.4606 122° Southeast 456 525 26,100 -2,340 Descending Los Angeles Center
05:01PM 33.8494 -119.3361 121° Southeast 439 505 23,200 -2,760 Descending Los Angeles Center
05:02PM 33.7894 -119.2194 122° Southeast 412 474 20,400 -2,700 Descending Los Angeles Center
05:03PM 33.7314 -119.1047 121° Southeast 404 465 17,700 -2,940 Descending Los Angeles Center
05:04PM 33.6636 -118.9747 122° Southeast 385 443 14,400 -3,000 Descending Los Angeles Center
05:05PM 33.6094 -118.8703 122° Southeast 374 430 11,600 -1,740 Descending Los Angeles Center
05:06PM 33.5619 -118.7708 120° Southeast 351 404 10,900 -780 Descending Los Angeles Center
05:07PM 33.5614 -118.6744 90° East 297 342 10,100 -1,140 Descending Los Angeles Center
05:08PM 33.5633 -118.5825 89° East 282 325 8,600 -1,500 Descending Los Angeles Center
05:09PM 33.5975 -118.4814 68° East 285 328 7,000 -1,500 Descending Los Angeles Center
05:10PM 33.6036 -118.3931 85° East 282 325 5,600 -960 Descending Los Angeles Center
05:11PM 33.5989 -118.3014 94° East 282 325 5,100 -300 Descending Los Angeles Center
05:12PM 33.5928 -118.2122 95° East 277 319 5,100  Level Los Angeles Center
05:13PM 33.6164 -118.1375 69° East 259 298 5,100 -60 Level Los Angeles Center
05:15PM 33.6667 -118.0500 55° Northeast 221 254 5,000 -60 Descending Southern California TRACON
05:16PM 33.7000 -117.9833 59° Northeast 213 245 5,000 -60 Level Southern California TRACON
05:17PM 33.7333 -117.9333 51° Northeast 211 243 4,900 -840 Descending Southern California TRACON
05:18PM 33.7667 -117.8833 51° Northeast 206 237 3,500 -1,320 Descending Southern California TRACON
05:19PM 33.7833 -117.8167 73° East 199 229 2,300 -1,080 Descending Southern California TRACON
05:20PM 33.7333 -117.8333 195° South 157 181 1,400 -900 Descending Southern California TRACON
05:21PM 33.7000 -117.8500 203° Southwest 123 142 600 -840 Descending Southern California TRACON
05:24PM 33.6757 -117.8682 132° Southeast  Level Estimated